Time;durP1;ratioP1;P1;durP2;ratioP2;P2;SDS_P1;SDS_P2;PMS_P1;PMS_P2;Temp;Humidity;BMP_temperature;BMP_pressure;BME280_temperature;BME280_humidity;BME280_pressure;Samples;Min_cycle;Max_cycle;Signal;HPM_P1;HPM_P2
2022/06/28 00:00:42;;;;;;;10.00;7.47;;;;;;;15.80;100.00;95255.28;5043032;28;20036;-70
2022/06/28 00:03:09;;;;;;;8.82;7.22;;;;;;;15.79;100.00;95261.56;5043187;28;20044;-70
2022/06/28 00:05:36;;;;;;;12.93;8.00;;;;;;;15.70;100.00;95258.63;5068053;28;20040;-70
2022/06/28 00:08:04;;;;;;;11.00;7.70;;;;;;;15.67;100.00;95253.88;5045599;28;20108;-71
2022/06/28 00:10:31;;;;;;;17.00;8.77;;;;;;;15.55;100.00;95248.00;5045910;28;20028;-71
2022/06/28 00:12:59;;;;;;;13.15;7.28;;;;;;;15.56;100.00;95260.09;5047163;28;20402;-71
2022/06/28 00:18:11;;;;;;;10.07;8.38;;;;;;;15.55;100.00;95255.88;5063455;28;20047;-71
2022/06/28 00:20:38;;;;;;;10.65;7.82;;;;;;;15.53;100.00;95260.59;5068290;28;20067;-71
2022/06/28 00:23:05;;;;;;;13.98;8.05;;;;;;;15.35;100.00;95228.41;5064805;28;20772;-71
2022/06/28 00:25:32;;;;;;;10.85;7.25;;;;;;;15.45;100.00;95249.50;5061220;28;20055;-71
2022/06/28 00:27:59;;;;;;;10.82;8.30;;;;;;;15.50;100.00;95251.38;5040763;28;20052;-71
2022/06/28 00:30:26;;;;;;;13.95;8.05;;;;;;;15.39;100.00;95240.00;5065133;28;20039;-71
2022/06/28 00:32:53;;;;;;;10.30;7.80;;;;;;;15.45;100.00;95253.97;5038559;28;20097;-70
2022/06/28 00:35:21;;;;;;;10.65;8.20;;;;;;;15.52;100.00;95259.81;5043641;28;20047;-71
2022/06/28 00:37:48;;;;;;;19.15;10.18;;;;;;;15.45;100.00;95243.47;5051377;28;20135;-70
2022/06/28 00:40:14;;;;;;;14.35;8.48;;;;;;;15.52;100.00;95243.25;5042247;28;20037;-71
2022/06/28 00:42:42;;;;;;;14.70;9.68;;;;;;;15.48;100.00;95251.63;5068754;28;20045;-71
2022/06/28 00:45:10;;;;;;;10.65;8.05;;;;;;;15.36;100.00;95240.50;5040429;28;20055;-71
2022/06/28 00:47:38;;;;;;;16.25;8.63;;;;;;;15.39;100.00;95250.50;5069467;28;20531;-69
2022/06/28 00:50:06;;;;;;;14.10;8.82;;;;;;;15.36;100.00;95250.19;5050650;28;20036;-70
2022/06/28 00:52:33;;;;;;;11.82;8.40;;;;;;;15.33;100.00;95255.97;5062617;28;20043;-69
2022/06/28 00:55:01;;;;;;;11.15;8.55;;;;;;;15.28;100.00;95248.84;5038721;28;20066;-70
2022/06/28 00:57:27;;;;;;;12.05;8.82;;;;;;;15.33;100.00;95259.38;5060230;28;20694;-70
2022/06/28 00:59:55;;;;;;;11.43;8.35;;;;;;;15.30;100.00;95252.00;5064428;28;20068;-70
2022/06/28 01:02:29;;;;;;;10.98;8.48;;;;;;;15.27;100.00;95252.50;5053207;28;20051;-71
2022/06/28 01:04:56;;;;;;;11.50;8.13;;;;;;;15.25;100.00;95259.81;5040056;28;20048;-70
2022/06/28 01:07:23;;;;;;;10.90;8.55;;;;;;;15.13;100.00;95246.09;5042687;28;20735;-70
2022/06/28 01:09:50;;;;;;;12.30;8.55;;;;;;;15.01;100.00;95231.28;5037639;28;20170;-70
2022/06/28 01:12:17;;;;;;;11.57;8.77;;;;;;;15.15;100.00;95244.00;5038455;28;20048;-70
2022/06/28 01:14:44;;;;;;;10.55;8.10;;;;;;;15.09;100.00;95246.59;5059669;28;20047;-70
2022/06/28 01:17:32;;;;;;;10.80;8.57;;;;;;;14.96;100.00;95252.22;5031948;28;20166;-70
2022/06/28 01:20:21;;;;;;;12.27;8.57;;;;;;;14.91;100.00;95249.56;5065918;28;20041;-70
2022/06/28 01:23:20;;;;;;;16.02;8.98;;;;;;;14.90;100.00;95247.97;5039572;28;20044;-70
2022/06/28 01:25:55;;;;;;;12.25;8.35;;;;;;;14.82;100.00;95233.47;5049414;28;20048;-70
2022/06/28 01:28:32;;;;;;;11.98;8.38;;;;;;;14.83;100.00;95231.63;5042298;28;20052;-70
2022/06/28 01:31:10;;;;;;;10.27;8.50;;;;;;;14.74;100.00;95227.88;5049031;28;20080;-70
2022/06/28 01:33:39;;;;;;;11.43;8.50;;;;;;;14.82;100.00;95241.34;5034956;28;20529;-70
2022/06/28 01:36:10;;;;;;;10.80;8.38;;;;;;;14.70;100.00;95233.59;5045969;28;20045;-70
2022/06/28 01:38:39;;;;;;;9.88;8.07;;;;;;;14.70;100.00;95249.34;5049041;28;20041;-69
2022/06/28 01:41:07;;;;;;;10.27;8.07;;;;;;;14.65;100.00;95244.03;5040852;28;20077;-70
2022/06/28 01:43:39;;;;;;;12.15;8.63;;;;;;;14.62;100.00;95251.59;5038758;28;20680;-70
2022/06/28 01:46:06;;;;;;;12.07;8.00;;;;;;;14.54;100.00;95240.47;5045373;28;20058;-69
2022/06/28 01:48:39;;;;;;;10.45;7.95;;;;;;;14.54;100.00;95244.94;5027624;28;20698;-69
2022/06/28 01:51:13;;;;;;;11.93;8.60;;;;;;;14.46;100.00;95240.16;5068061;28;20041;-70
2022/06/28 01:53:40;;;;;;;11.00;8.45;;;;;;;14.44;100.00;95244.81;5036769;28;20132;-70
2022/06/28 01:56:31;;;;;;;11.63;8.52;;;;;;;14.40;100.00;95248.97;5045196;28;20127;-70
2022/06/28 01:59:02;;;;;;;10.77;8.38;;;;;;;14.44;100.00;95244.81;5027381;28;20040;-70
2022/06/28 02:01:40;;;;;;;9.23;7.78;;;;;;;14.48;100.00;95240.69;5059556;28;20483;-70
2022/06/28 02:04:18;;;;;;;10.10;7.70;;;;;;;14.50;100.00;95244.63;5046654;28;20616;-70
2022/06/28 02:06:48;;;;;;;11.70;9.27;;;;;;;14.40;100.00;95248.97;5044015;28;20132;-70
2022/06/28 02:09:16;;;;;;;11.82;8.20;;;;;;;14.29;100.00;95235.75;5025270;28;20166;-70
2022/06/28 02:11:48;;;;;;;11.77;8.20;;;;;;;14.32;100.00;95237.88;5045762;28;20044;-70
2022/06/28 02:14:20;;;;;;;11.98;7.95;;;;;;;14.34;100.00;95235.81;5047165;28;20046;-70
2022/06/28 02:16:48;;;;;;;14.35;8.43;;;;;;;14.34;100.00;95241.03;5044127;28;20131;-69
2022/06/28 02:19:15;;;;;;;13.35;7.50;;;;;;;14.30;100.00;95249.66;5038993;28;20056;-70
2022/06/28 02:21:44;;;;;;;15.00;9.18;;;;;;;14.29;100.00;95237.56;5044458;28;20044;-70
2022/06/28 02:24:12;;;;;;;12.93;8.43;;;;;;;14.32;100.00;95243.13;5065055;28;20127;-70
2022/06/28 02:26:39;;;;;;;15.88;8.63;;;;;;;14.31;100.00;95245.97;5061794;28;20039;-70
2022/06/28 02:29:07;;;;;;;13.73;8.68;;;;;;;14.29;100.00;95246.22;5068755;28;20044;-70
2022/06/28 02:31:36;;;;;;;9.98;7.38;;;;;;;14.27;100.00;95250.91;5037753;28;20050;-70
2022/06/28 02:34:04;;;;;;;11.13;8.02;;;;;;;14.23;100.00;95249.81;5048918;28;20144;-70
2022/06/28 02:41:51;;;;;;;15.32;8.25;;;;;;;14.21;100.00;95251.91;5067834;28;20072;-70
2022/06/28 02:44:19;;;;;;;10.60;7.90;;;;;;;14.17;100.00;95253.44;5045811;28;20063;-70
2022/06/28 02:46:47;;;;;;;14.13;9.13;;;;;;;14.17;100.00;95240.34;5071083;28;20586;-70
2022/06/28 02:49:15;;;;;;;11.82;8.23;;;;;;;14.22;100.00;95248.22;5050349;28;20048;-70
2022/06/28 02:51:42;;;;;;;12.63;9.00;;;;;;;14.27;100.00;95240.44;5067757;28;20028;-70
2022/06/28 02:54:09;;;;;;;15.70;10.02;;;;;;;14.30;100.00;95247.81;5055463;28;20105;-70
2022/06/28 02:56:37;;;;;;;15.20;8.25;;;;;;;14.28;100.00;95242.03;5054979;28;20040;-70
2022/06/28 02:59:04;;;;;;;9.75;8.32;;;;;;;14.31;100.00;95235.50;5064376;28;20080;-70
2022/06/28 03:01:31;;;;;;;13.55;9.07;;;;;;;14.33;100.00;95239.47;5053500;28;20040;-70
2022/06/28 03:03:59;;;;;;;12.43;8.88;;;;;;;14.39;100.00;95240.31;5042768;28;20681;-70
2022/06/28 03:06:26;;;;;;;16.83;7.95;;;;;;;14.40;100.00;95246.34;5050197;28;20048;-70
2022/06/28 03:08:53;;;;;;;14.98;7.88;;;;;;;14.46;100.00;95248.00;5064150;28;20040;-69
2022/06/28 03:11:20;;;;;;;11.18;8.65;;;;;;;14.44;100.00;95234.34;5047120;28;20132;-69
2022/06/28 03:13:47;;;;;;;14.93;8.68;;;;;;;14.56;100.00;95242.88;5060046;28;20028;-70
2022/06/28 03:16:14;;;;;;;13.85;8.90;;;;;;;14.58;100.00;95229.53;5046176;28;20036;-70
2022/06/28 03:18:41;;;;;;;21.17;11.18;;;;;;;14.62;100.00;95236.69;5057022;28;20028;-70
2022/06/28 03:21:08;;;;;;;16.40;11.23;;;;;;;14.67;100.00;95241.97;5068213;28;20047;-70
2022/06/28 03:23:38;;;;;;;22.83;12.40;;;;;;;14.69;100.00;95246.97;5075945;28;20088;-69
2022/06/28 03:26:24;;;;;;;24.88;12.23;;;;;;;14.71;100.00;95237.81;4976873;23;20054;-66
2022/06/28 03:29:00;;;;;;;31.23;17.08;;;;;;;14.79;100.00;95230.56;4979593;28;20143;-65
2022/06/28 03:31:26;;;;;;;35.72;19.52;;;;;;;14.82;100.00;95236.09;4984743;28;20047;-66
2022/06/28 03:33:53;;;;;;;26.83;17.10;;;;;;;14.79;100.00;95238.44;4959718;28;20051;-66
2022/06/28 03:36:33;;;;;;;30.40;17.00;;;;;;;14.64;100.00;95216.25;4964513;28;20042;-65
2022/06/28 03:39:25;;;;;;;21.77;13.32;;;;;;;14.86;100.00;95236.41;4961428;28;20050;-66
2022/06/28 03:41:53;;;;;;;17.83;12.02;;;;;;;14.77;100.00;95220.31;4982424;28;20066;-65
2022/06/28 03:44:21;;;;;;;20.02;12.30;;;;;;;15.00;100.00;95242.84;4961957;28;20105;-65
2022/06/28 03:46:48;;;;;;;19.27;11.95;;;;;;;15.05;100.00;95240.25;4949671;28;20082;-66
2022/06/28 03:58:23;;;;;;;22.47;12.17;;;;;;;15.29;100.00;95251.22;5033461;23;20051;-69
2022/06/28 04:00:50;;;;;;;17.17;10.85;;;;;;;15.44;100.00;95247.91;5002262;28;20060;-69
2022/06/28 04:03:17;;;;;;;17.00;10.80;;;;;;;15.57;100.00;95256.41;5007211;28;20049;-69
2022/06/28 04:06:13;;;;;;;14.18;10.50;;;;;;;15.70;100.00;95257.81;5015335;28;20135;-69
2022/06/28 04:08:41;;;;;;;15.27;10.27;;;;;;;15.85;100.00;95263.19;5021570;28;20489;-69
2022/06/28 04:11:14;;;;;;;17.95;9.85;;;;;;;15.97;100.00;95257.75;5033989;28;20032;-69
2022/06/28 04:13:43;;;;;;;22.70;10.00;;;;;;;16.17;100.00;95260.50;5044211;28;20157;-69
2022/06/28 04:16:22;;;;;;;10.65;8.65;;;;;;;16.35;100.00;95261.91;5024374;28;20045;-69
2022/06/28 04:18:51;;;;;;;15.45;8.30;;;;;;;16.51;100.00;95260.13;5023176;28;20172;-69
2022/06/28 04:21:25;;;;;;;12.35;8.07;;;;;;;16.65;100.00;95264.88;5020352;28;20040;-69
2022/06/28 04:24:22;;;;;;;11.98;8.32;;;;;;;16.82;100.00;95270.75;5033056;28;20044;-69
2022/06/28 04:26:57;;;;;;;11.15;8.25;;;;;;;16.98;100.00;95275.00;5024928;28;20211;-69
2022/06/28 04:29:30;;;;;;;9.25;8.02;;;;;;;17.10;100.00;95266.06;5029148;28;20056;-66
2022/06/28 04:31:59;;;;;;;10.55;8.40;;;;;;;17.26;100.00;95280.84;4986948;28;20076;-66
2022/06/28 04:34:31;;;;;;;10.43;8.27;;;;;;;17.44;100.00;95291.91;5020458;28;20128;-66
2022/06/28 04:36:59;;;;;;;11.57;8.38;;;;;;;17.55;100.00;95277.69;5020211;28;20048;-66
2022/06/28 04:39:33;;;;;;;9.75;8.10;;;;;;;17.68;100.00;95282.44;5007631;28;20072;-66
2022/06/28 04:42:31;;;;;;;11.23;8.45;;;;;;;17.81;100.00;95280.31;5022215;28;20530;-67
2022/06/28 04:44:58;;;;;;;11.18;8.00;;;;;;;17.89;100.00;95277.19;5020277;28;20162;-67
2022/06/28 04:47:54;;;;;;;12.50;8.45;;;;;;;18.10;100.00;95284.00;5022982;28;20045;-67
2022/06/28 04:50:20;;;;;;;13.00;9.35;;;;;;;18.18;100.00;95281.88;5021193;28;20040;-67
2022/06/28 04:52:49;;;;;;;12.77;9.55;;;;;;;18.18;100.00;95297.69;5020584;28;20048;-67
2022/06/28 04:55:26;;;;;;;12.57;10.05;;;;;;;18.23;100.00;95298.47;5032191;28;20051;-67
2022/06/28 05:01:53;;;;;;;13.85;10.82;;;;;;;18.37;100.00;95303.97;5040610;28;20090;-67
2022/06/28 05:04:42;;;;;;;14.65;11.13;;;;;;;18.48;100.00;95300.22;5036945;28;20088;-66
2022/06/28 05:07:16;;;;;;;14.63;11.77;;;;;;;18.43;100.00;95292.34;5043372;28;20060;-67
2022/06/28 05:09:43;;;;;;;13.75;10.43;;;;;;;18.51;100.00;95294.44;5019706;28;20045;-67
2022/06/28 05:12:16;;;;;;;15.82;11.68;;;;;;;18.63;100.00;95301.22;5036134;28;20043;-67
2022/06/28 05:15:04;;;;;;;19.50;12.65;;;;;;;18.72;100.00;95300.38;5040755;28;20049;-67
2022/06/28 05:18:14;;;;;;;14.85;10.48;;;;;;;18.78;100.00;95277.44;5031922;28;20051;-67
2022/06/28 05:20:41;;;;;;;20.13;12.57;;;;;;;18.77;100.00;95269.78;5025792;28;20032;-67
2022/06/28 05:23:08;;;;;;;19.15;11.93;;;;;;;18.90;100.00;95285.81;5010041;28;20041;-67
2022/06/28 05:25:54;;;;;;;13.90;11.35;;;;;;;18.96;100.00;95288.44;5043138;28;20122;-67
2022/06/28 05:28:30;;;;;;;20.83;12.10;;;;;;;19.09;100.00;95280.72;5023987;28;20052;-67
2022/06/28 05:30:57;;;;;;;16.60;11.00;;;;;;;19.18;100.00;95280.94;5024917;28;20064;-67
2022/06/28 05:33:24;;;;;;;17.83;12.00;;;;;;;19.31;100.00;95278.75;5021406;28;20049;-66
2022/06/28 05:36:06;;;;;;;12.75;10.55;;;;;;;19.43;100.00;95287.09;5016489;28;20049;-66
2022/06/28 05:38:33;;;;;;;17.48;11.60;;;;;;;19.56;100.00;95275.91;5019170;28;20047;-67
2022/06/28 05:40:59;;;;;;;15.43;10.20;;;;;;;19.72;100.00;95289.00;5040603;28;20041;-66
2022/06/28 05:43:26;;;;;;;14.05;9.35;;;;;;;19.87;100.00;95291.53;5023499;28;20044;-66
2022/06/28 05:45:53;;;;;;;13.55;9.63;;;;;;;19.93;100.00;95290.41;5024659;28;20045;-67
2022/06/28 05:48:22;;;;;;;14.38;9.98;;;;;;;19.92;100.00;95286.19;5024639;28;20128;-67
2022/06/28 05:50:49;;;;;;;13.35;9.48;;;;;;;19.92;100.00;95288.84;5046638;28;20593;-67
2022/06/28 05:53:15;;;;;;;15.70;8.73;;;;;;;19.96;100.00;95297.00;5023172;28;20759;-67
2022/06/28 05:55:42;;;;;;;16.40;9.18;;;;;;;19.98;100.00;95298.28;5046703;28;20048;-67
2022/06/28 05:58:09;;;;;;;13.32;8.80;;;;;;;19.96;100.00;95305.72;5045387;28;20057;-68
2022/06/28 06:00:39;;;;;;;12.32;8.73;;;;;;;20.13;100.00;95304.50;5029126;28;20041;-68
2022/06/28 06:03:06;;;;;;;14.50;10.18;;;;;;;20.05;100.00;95306.69;5041238;28;20048;-68
2022/06/28 06:05:33;;;;;;;24.80;9.80;;;;;;;20.15;100.00;95307.66;5043694;28;20045;-68
2022/06/28 06:08:01;;;;;;;18.02;9.70;;;;;;;20.25;100.00;95308.34;5026805;28;20060;-68
2022/06/28 06:10:34;;;;;;;15.77;10.02;;;;;;;20.27;100.00;95307.28;5029277;28;20049;-68
2022/06/28 06:13:02;;;;;;;20.83;10.80;;;;;;;20.37;100.00;95307.97;5025472;28;20155;-68
2022/06/28 06:15:29;;;;;;;15.25;9.65;;;;;;;20.37;100.00;95294.72;5030179;28;20049;-68
2022/06/28 06:17:56;;;;;;;22.98;9.68;;;;;;;20.49;100.00;95301.47;5023301;28;20045;-67
2022/06/28 06:20:28;;;;;;;16.88;10.05;;;;;;;20.47;100.00;95299.09;5039433;28;20090;-68
2022/06/28 06:22:55;;;;;;;21.42;10.32;;;;;;;20.40;100.00;95299.47;5030653;28;20698;-68
2022/06/28 06:25:44;;;;;;;18.35;9.55;;;;;;;20.66;100.00;95295.78;5043133;28;20094;-68
2022/06/28 06:28:11;;;;;;;14.65;8.95;;;;;;;20.85;100.00;95303.72;5056262;28;20059;-68
2022/06/28 06:30:39;;;;;;;17.00;10.40;;;;;;;20.89;100.00;95288.88;5045580;28;20041;-68
2022/06/28 06:33:18;;;;;;;14.85;8.65;;;;;;;21.02;100.00;95298.75;5035622;28;20044;-68
2022/06/28 06:36:04;;;;;;;14.43;9.60;;;;;;;21.24;100.00;95290.22;5041806;28;20557;-68
2022/06/28 06:38:33;;;;;;;16.08;9.35;;;;;;;21.52;100.00;95288.53;5036226;28;20053;-68
2022/06/28 06:41:00;;;;;;;24.23;10.68;;;;;;;21.51;98.87;95286.16;5024472;28;20043;-67
2022/06/28 06:43:28;;;;;;;18.85;9.60;;;;;;;21.44;99.24;95283.84;5027331;28;20043;-68
2022/06/28 06:46:15;;;;;;;10.27;8.93;;;;;;;21.24;98.27;95278.84;5046877;28;20053;-68
2022/06/28 06:48:49;;;;;;;14.65;9.23;;;;;;;21.53;99.50;95276.81;5027491;28;20146;-68
2022/06/28 06:51:30;;;;;;;14.57;9.95;;;;;;;21.76;100.00;95274.34;5039118;28;20032;-68
2022/06/28 06:54:22;;;;;;;14.70;8.73;;;;;;;21.96;97.87;95276.66;5030610;28;20080;-68
2022/06/28 06:57:14;;;;;;;8.48;7.38;;;;;;;22.17;94.30;95278.94;5042850;28;20057;-68
2022/06/28 06:59:42;;;;;;;9.82;8.20;;;;;;;22.27;93.69;95273.50;5054364;28;20041;-68
2022/06/28 07:02:09;;;;;;;11.75;7.40;;;;;;;22.38;93.19;95275.94;5028977;28;20196;-68
2022/06/28 07:04:54;;;;;;;9.10;6.85;;;;;;;22.56;93.37;95269.72;5028506;28;20033;-67
2022/06/28 07:07:22;;;;;;;11.63;7.38;;;;;;;22.84;92.08;95267.06;5026707;28;20052;-68
2022/06/28 07:09:50;;;;;;;10.38;7.18;;;;;;;23.01;91.17;95272.53;5028344;28;20043;-68
2022/06/28 07:12:17;;;;;;;9.02;6.78;;;;;;;23.08;88.66;95264.97;5025104;28;20534;-68
2022/06/28 07:15:17;;;;;;;9.90;6.70;;;;;;;23.38;88.06;95261.91;5041783;28;20556;-68
2022/06/28 07:17:44;;;;;;;10.27;6.50;;;;;;;23.43;85.56;95259.94;5025332;28;20079;-68
2022/06/28 07:20:11;;;;;;;11.82;6.85;;;;;;;23.54;87.34;95265.00;5030590;28;20048;-68
2022/06/28 07:22:38;;;;;;;11.43;7.28;;;;;;;23.74;88.52;95264.50;5039610;28;20025;-67
2022/06/28 07:25:10;;;;;;;10.55;6.95;;;;;;;23.88;88.00;95268.97;5023995;28;20051;-66
2022/06/28 07:27:53;;;;;;;12.00;7.47;;;;;;;24.04;89.14;95270.19;5019980;28;20045;-66
2022/06/28 07:30:20;;;;;;;11.90;7.13;;;;;;;24.12;89.80;95274.75;5042894;28;20128;-67
2022/06/28 07:32:47;;;;;;;13.60;6.45;;;;;;;24.26;85.60;95268.56;5027474;28;20044;-67
2022/06/28 07:35:24;;;;;;;9.75;6.45;;;;;;;24.26;86.06;95273.88;5011792;28;20048;-67
2022/06/28 07:38:31;;;;;;;8.27;6.53;;;;;;;24.32;82.67;95257.44;4983967;28;20744;-68
2022/06/28 07:41:23;;;;;;;7.63;6.43;;;;;;;24.65;83.23;95274.97;4977105;28;20092;-68
2022/06/28 07:44:11;;;;;;;9.05;6.55;;;;;;;24.83;79.34;95281.91;4980894;28;20892;-68
2022/06/28 07:46:39;;;;;;;13.18;6.20;;;;;;;24.72;77.50;95285.94;4980970;28;20046;-67
2022/06/28 07:49:19;;;;;;;15.63;6.75;;;;;;;24.69;76.49;95283.91;4965035;28;20052;-67
2022/06/28 07:54:46;;;;;;;11.60;6.43;;;;;;;25.07;72.80;95286.03;4962712;28;20551;-67
2022/06/28 07:57:27;;;;;;;16.05;6.22;;;;;;;25.20;71.83;95287.75;4961424;28;20058;-67
2022/06/28 08:00:07;;;;;;;10.02;6.13;;;;;;;25.33;72.19;95278.81;4959732;28;20552;-67
2022/06/28 08:02:37;;;;;;;10.77;6.35;;;;;;;25.66;71.30;95275.69;4979998;28;20042;-67
2022/06/28 08:05:07;;;;;;;13.30;6.53;;;;;;;25.89;68.65;95272.78;4962302;28;20072;-68
2022/06/28 08:07:36;;;;;;;13.55;6.30;;;;;;;26.15;69.43;95269.31;4966284;28;20137;-68
2022/06/28 08:10:16;;;;;;;12.20;6.82;;;;;;;26.30;67.15;95268.78;5035606;28;20131;-68
2022/06/28 08:12:44;;;;;;;21.50;6.35;;;;;;;26.33;67.88;95276.16;5019202;28;20519;-68
2022/06/28 08:15:23;;;;;;;10.15;5.55;;;;;;;26.42;66.39;95271.56;5046677;28;20582;-68
2022/06/28 08:17:50;;;;;;;9.25;5.68;;;;;;;26.50;65.37;95265.38;5040187;28;20123;-68
2022/06/28 08:20:17;;;;;;;11.27;5.60;;;;;;;26.62;62.96;95270.06;5019019;28;20052;-68
2022/06/28 08:22:45;;;;;;;7.50;6.18;;;;;;;26.84;67.42;95277.00;4994608;28;20545;-68
2022/06/28 08:25:14;;;;;;;7.00;5.70;;;;;;;27.15;63.16;95265.16;5023507;28;20048;-68
2022/06/28 08:27:46;;;;;;;17.02;6.07;;;;;;;27.21;64.91;95261.19;5033438;28;20056;-68
2022/06/28 08:30:15;;;;;;;9.88;5.85;;;;;;;27.40;63.40;95262.66;5031453;28;20045;-67
2022/06/28 08:32:42;;;;;;;11.75;5.63;;;;;;;27.61;63.16;95268.75;5030043;28;20065;-67
2022/06/28 08:35:10;;;;;;;9.73;5.38;;;;;;;27.65;58.59;95264.28;5011021;28;20045;-69
2022/06/28 08:37:38;;;;;;;21.42;6.40;;;;;;;27.73;59.59;95259.19;5042501;28;20507;-68
2022/06/28 08:40:05;;;;;;;8.40;5.13;;;;;;;27.81;56.52;95261.78;5040495;28;20055;-69
2022/06/28 08:42:37;;;;;;;10.63;5.53;;;;;;;27.76;54.94;95263.88;5041766;28;20048;-68
2022/06/28 08:45:14;;;;;;;8.45;5.10;;;;;;;27.98;56.29;95258.19;5041282;28;20107;-68
2022/06/28 08:47:43;;;;;;;7.15;5.05;;;;;;;28.04;53.56;95272.13;5042693;28;20121;-69
2022/06/28 08:50:37;;;;;;;7.88;4.78;;;;;;;28.13;52.18;95272.81;5043651;28;20048;-68
2022/06/28 08:53:06;;;;;;;6.85;5.05;;;;;;;28.30;51.65;95271.81;5044224;28;20048;-69
2022/06/28 08:55:41;;;;;;;6.55;4.53;;;;;;;28.51;53.02;95265.59;5042050;28;20056;-68
2022/06/28 08:58:08;;;;;;;10.45;6.18;;;;;;;28.71;51.21;95264.72;5043219;28;20052;-68
2022/06/28 09:00:45;;;;;;;8.60;4.28;;;;;;;28.90;51.65;95250.75;5039546;28;20047;-69
2022/06/28 09:03:12;;;;;;;5.45;4.95;;;;;;;28.64;48.89;95243.06;5041324;28;20264;-68
2022/06/28 09:05:38;;;;;;;5.75;4.30;;;;;;;28.69;49.96;95256.22;5030373;28;20671;-68
2022/06/28 09:08:08;;;;;;;7.05;4.47;;;;;;;28.62;48.78;95261.38;5036840;28;20055;-68
2022/06/28 09:10:39;;;;;;;5.60;5.07;;;;;;;28.79;48.94;95261.13;5037049;28;20045;-68
2022/06/28 09:13:30;;;;;;;5.03;4.10;;;;;;;29.05;48.04;95259.97;5032820;28;20061;-68
2022/06/28 09:16:03;;;;;;;5.25;4.38;;;;;;;29.52;47.26;95261.31;5018804;28;20587;-68
2022/06/28 09:18:36;;;;;;;10.50;4.57;;;;;;;29.80;47.56;95258.63;5044805;28;20536;-68
2022/06/28 09:21:12;;;;;;;5.00;4.50;;;;;;;30.20;46.67;95260.41;5031377;28;20435;-68
2022/06/28 09:23:43;;;;;;;9.30;4.97;;;;;;;29.99;45.19;95262.56;5019771;28;20037;-68
2022/06/28 09:26:28;;;;;;;6.22;4.68;;;;;;;29.69;45.22;95268.25;5017696;28;20041;-68
2022/06/28 09:29:28;;;;;;;5.38;4.50;;;;;;;29.80;45.89;95258.63;5040160;28;20051;-68
2022/06/28 09:31:54;;;;;;;10.98;5.00;;;;;;;29.90;45.68;95260.81;5034200;28;20037;-68
2022/06/28 09:34:21;;;;;;;6.80;4.65;;;;;;;30.32;45.52;95262.19;5036818;28;20041;-68
2022/06/28 09:37:08;;;;;;;5.57;4.55;;;;;;;30.79;45.47;95263.31;5049271;28;20044;-69
2022/06/28 09:39:54;;;;;;;12.55;4.88;;;;;;;30.95;43.58;95266.75;5050038;28;20055;-68
2022/06/28 09:42:21;;;;;;;5.47;4.97;;;;;;;31.08;43.90;95263.94;5010261;28;20036;-69
2022/06/28 09:44:51;;;;;;;5.20;4.35;;;;;;;31.09;44.52;95265.53;5048111;28;20526;-70
2022/06/28 09:47:18;;;;;;;4.93;4.47;;;;;;;31.30;42.16;95260.59;5037199;28;20056;-68
2022/06/28 09:49:48;;;;;;;5.13;4.38;;;;;;;31.66;41.34;95250.53;5044774;28;20044;-68
2022/06/28 09:52:19;;;;;;;5.95;4.22;;;;;;;31.77;39.37;95256.91;5042432;28;20063;-68
2022/06/28 09:54:53;;;;;;;13.77;4.20;;;;;;;31.96;38.87;95249.91;5041537;28;20071;-69
2022/06/28 09:57:36;;;;;;;4.28;3.88;;;;;;;31.99;37.82;95251.88;5036593;28;20057;-69
2022/06/28 10:00:04;;;;;;;5.13;4.07;;;;;;;31.65;38.98;95253.59;5025807;28;20049;-69
2022/06/28 10:02:55;;;;;;;4.75;3.85;;;;;;;31.61;41.14;95253.53;4979947;28;20078;-69
2022/06/28 10:05:26;;;;;;;5.57;3.53;;;;;;;31.78;39.24;95247.69;4990343;28;20053;-69
2022/06/28 10:07:53;;;;;;;6.93;4.30;;;;;;;31.54;37.75;95245.31;4985230;28;20070;-69
2022/06/28 10:10:22;;;;;;;6.15;4.10;;;;;;;31.37;40.24;95247.28;4982572;28;20046;-69
2022/06/28 10:15:37;;;;;;;6.93;3.65;;;;;;;31.60;39.29;95241.19;4982068;28;20050;-69
2022/06/28 10:18:27;;;;;;;3.47;3.13;;;;;;;31.43;38.74;95245.84;4961966;28;20053;-69
2022/06/28 10:20:54;;;;;;;3.47;3.08;;;;;;;31.51;38.42;95243.31;4986531;28;20045;-68
2022/06/28 10:23:46;;;;;;;3.55;3.20;;;;;;;31.39;37.74;95245.00;4985616;28;20086;-69
2022/06/28 10:26:20;;;;;;;5.88;3.38;;;;;;;31.34;36.99;95239.91;4986081;28;20637;-69
2022/06/28 10:29:01;;;;;;;4.40;3.40;;;;;;;31.52;38.17;95234.13;4984810;28;20061;-69
2022/06/28 10:31:29;;;;;;;3.45;3.15;;;;;;;32.03;37.67;95228.47;4988166;28;20523;-69
2022/06/28 10:34:23;;;;;;;3.35;3.03;;;;;;;32.52;37.90;95230.44;5015389;28;20046;-69
2022/06/28 10:36:52;;;;;;;9.20;3.30;;;;;;;32.62;35.13;95228.28;5027180;28;20044;-69
2022/06/28 10:39:31;;;;;;;3.22;2.92;;;;;;;33.11;35.77;95224.69;5041822;28;20123;-69
2022/06/28 10:42:18;;;;;;;3.22;2.90;;;;;;;33.48;32.80;95235.59;5042416;28;20039;-69
2022/06/28 10:44:46;;;;;;;6.05;3.40;;;;;;;33.75;33.30;95226.63;5035687;28;20048;-70
2022/06/28 10:47:16;;;;;;;3.17;2.88;;;;;;;33.82;33.84;95232.88;5040374;28;20041;-68
2022/06/28 10:49:46;;;;;;;4.30;3.15;;;;;;;33.63;31.29;95233.81;5048463;28;20047;-68
2022/06/28 10:52:23;;;;;;;2.90;2.70;;;;;;;33.54;32.52;95227.94;5034485;28;20131;-69
2022/06/28 10:55:09;;;;;;;3.63;3.28;;;;;;;33.17;32.42;95242.16;5038554;28;20591;-68
2022/06/28 10:58:19;;;;;;;4.68;2.95;;;;;;;33.19;33.20;95234.47;5040849;28;20045;-69
2022/06/28 11:00:52;;;;;;;4.55;3.53;;;;;;;32.97;30.74;95227.97;5037273;28;20033;-68
2022/06/28 11:03:19;;;;;;;2.60;2.35;;;;;;;32.90;31.47;95223.28;5017950;28;20522;-69
2022/06/28 11:05:52;;;;;;;4.43;2.92;;;;;;;33.06;33.84;95203.44;5040324;28;20044;-69
2022/06/28 11:09:01;;;;;;;3.20;2.78;;;;;;;33.66;31.80;95203.41;5034474;28;20611;-69
2022/06/28 11:11:29;;;;;;;4.68;2.40;;;;;;;33.93;32.61;95194.38;5037545;28;20044;-69
2022/06/28 11:14:28;;;;;;;3.90;2.40;;;;;;;34.31;31.49;95205.91;5036189;28;20041;-69
2022/06/28 11:17:24;;;;;;;3.42;3.13;;;;;;;34.80;28.97;95196.56;5030307;28;20049;-69
2022/06/28 11:20:02;;;;;;;3.35;2.85;;;;;;;35.25;29.54;95201.81;5053300;28;20440;-69
2022/06/28 11:23:03;;;;;;;3.15;2.85;;;;;;;35.00;29.90;95191.66;5039008;28;20688;-69
2022/06/28 11:27:20;;;;;;;4.72;3.25;;;;;;;35.38;28.68;95197.59;5015306;28;20066;-69
2022/06/28 11:29:01;;;;;;;4.03;2.97;;;;;;;35.60;29.43;95199.22;5038051;28;20037;-69
2022/06/28 11:31:30;;;;;;;5.22;3.05;;;;;;;35.54;28.40;95195.31;5045307;28;20114;-69
2022/06/28 11:33:58;;;;;;;3.65;3.35;;;;;;;35.73;27.91;95201.59;5038428;28;20041;-69
2022/06/28 11:36:30;;;;;;;3.97;3.20;;;;;;;36.18;26.78;95199.28;5040929;28;20605;-69
2022/06/28 11:39:19;;;;;;;4.03;2.75;;;;;;;36.45;27.50;95196.22;5030892;28;20124;-70
2022/06/28 11:41:54;;;;;;;7.20;3.55;;;;;;;36.36;29.29;95191.94;5033325;28;20040;-70
2022/06/28 11:44:23;;;;;;;3.28;2.97;;;;;;;36.59;27.47;95190.75;5020684;28;20048;-70
2022/06/28 11:46:52;;;;;;;4.78;3.45;;;;;;;36.93;27.31;95193.00;5037851;28;20053;-68
2022/06/28 11:49:30;;;;;;;3.83;3.30;;;;;;;37.60;26.24;95201.25;5035282;28;20144;-68
2022/06/28 11:51:57;;;;;;;4.55;3.33;;;;;;;37.07;25.21;95203.81;5016052;28;20069;-68
2022/06/28 11:54:33;;;;;;;3.53;3.22;;;;;;;37.15;26.99;95193.72;5039663;28;20672;-69
2022/06/28 11:57:16;;;;;;;4.25;2.90;;;;;;;36.93;27.49;95209.28;5036605;28;20041;-68
2022/06/28 11:59:56;;;;;;;4.50;2.97;;;;;;;36.02;27.09;95186.13;5034233;28;20056;-68
2022/06/28 12:03:00;;;;;;;3.92;3.08;;;;;;;36.03;27.01;95208.56;5040811;28;20077;-68
2022/06/28 12:05:30;;;;;;;3.28;2.97;;;;;;;35.62;30.29;95201.53;5028679;28;20064;-68
2022/06/28 12:07:57;;;;;;;2.70;2.47;;;;;;;36.03;27.60;95214.00;5036276;28;20038;-67
2022/06/28 12:10:28;;;;;;;3.40;3.10;;;;;;;35.92;27.83;95209.34;5032911;28;20130;-68
2022/06/28 12:12:56;;;;;;;3.05;2.60;;;;;;;35.97;27.35;95217.09;5032525;28;20235;-69
2022/06/28 12:15:34;;;;;;;3.55;3.10;;;;;;;36.14;28.24;95220.19;5039567;28;20048;-69
2022/06/28 12:18:05;;;;;;;3.10;2.80;;;;;;;35.34;26.97;95207.66;5032868;28;20515;-70